sensor_id;sensor_type;location;lat;lon;timestamp;P1;durP1;ratioP1;P2;durP2;ratioP2
57627;SDS011;43451;49.060;10.616;2023-09-12T00:01:32;10.23;;;6.32;;
57627;SDS011;43451;49.060;10.616;2023-09-12T00:03:59;10.07;;;6.30;;
57627;SDS011;43451;49.060;10.616;2023-09-12T00:06:25;7.55;;;5.07;;
57627;SDS011;43451;49.060;10.616;2023-09-12T00:08:51;6.00;;;3.97;;
57627;SDS011;43451;49.060;10.616;2023-09-12T00:11:20;5.28;;;3.70;;
57627;SDS011;43451;49.060;10.616;2023-09-12T00:13:45;10.63;;;4.80;;
57627;SDS011;43451;49.060;10.616;2023-09-12T00:16:15;7.57;;;5.28;;
57627;SDS011;43451;49.060;10.616;2023-09-12T00:18:40;7.38;;;5.03;;
57627;SDS011;43451;49.060;10.616;2023-09-12T00:21:06;7.63;;;4.53;;
57627;SDS011;43451;49.060;10.616;2023-09-12T00:23:39;5.82;;;4.28;;
57627;SDS011;43451;49.060;10.616;2023-09-12T00:26:07;7.35;;;4.80;;
57627;SDS011;43451;49.060;10.616;2023-09-12T00:28:33;8.07;;;5.18;;
57627;SDS011;43451;49.060;10.616;2023-09-12T00:30:59;9.25;;;4.95;;
57627;SDS011;43451;49.060;10.616;2023-09-12T00:33:24;8.43;;;5.50;;
57627;SDS011;43451;49.060;10.616;2023-09-12T00:35:50;9.88;;;5.82;;
57627;SDS011;43451;49.060;10.616;2023-09-12T00:38:15;6.50;;;4.47;;
57627;SDS011;43451;49.060;10.616;2023-09-12T00:40:40;4.55;;;3.00;;
57627;SDS011;43451;49.060;10.616;2023-09-12T00:43:06;5.57;;;4.28;;
57627;SDS011;43451;49.060;10.616;2023-09-12T00:45:31;10.50;;;5.05;;
57627;SDS011;43451;49.060;10.616;2023-09-12T00:47:57;6.53;;;5.40;;
57627;SDS011;43451;49.060;10.616;2023-09-12T00:50:25;11.75;;;5.72;;
57627;SDS011;43451;49.060;10.616;2023-09-12T00:52:52;9.57;;;5.88;;
57627;SDS011;43451;49.060;10.616;2023-09-12T00:55:18;7.80;;;5.50;;
57627;SDS011;43451;49.060;10.616;2023-09-12T00:57:44;8.68;;;4.75;;
57627;SDS011;43451;49.060;10.616;2023-09-12T01:00:11;6.30;;;5.10;;
57627;SDS011;43451;49.060;10.616;2023-09-12T01:02:42;6.93;;;5.37;;
57627;SDS011;43451;49.060;10.616;2023-09-12T01:05:08;7.18;;;5.20;;
57627;SDS011;43451;49.060;10.616;2023-09-12T01:07:35;9.07;;;5.28;;
57627;SDS011;43451;49.060;10.616;2023-09-12T01:10:02;10.70;;;5.90;;
57627;SDS011;43451;49.060;10.616;2023-09-12T01:12:28;7.97;;;6.13;;
57627;SDS011;43451;49.060;10.616;2023-09-12T01:14:54;8.10;;;5.80;;
57627;SDS011;43451;49.060;10.616;2023-09-12T01:17:20;10.18;;;6.35;;
57627;SDS011;43451;49.060;10.616;2023-09-12T01:19:45;10.43;;;5.80;;
57627;SDS011;43451;49.060;10.616;2023-09-12T01:22:15;9.43;;;5.82;;
57627;SDS011;43451;49.060;10.616;2023-09-12T01:27:52;9.45;;;5.47;;
57627;SDS011;43451;49.060;10.616;2023-09-12T01:30:20;10.77;;;6.32;;
57627;SDS011;43451;49.060;10.616;2023-09-12T01:35:17;7.88;;;4.90;;
57627;SDS011;43451;49.060;10.616;2023-09-12T01:37:44;6.75;;;4.95;;
57627;SDS011;43451;49.060;10.616;2023-09-12T01:40:11;9.45;;;5.28;;
57627;SDS011;43451;49.060;10.616;2023-09-12T01:42:42;7.75;;;5.45;;
57627;SDS011;43451;49.060;10.616;2023-09-12T01:45:16;6.57;;;5.40;;
57627;SDS011;43451;49.060;10.616;2023-09-12T01:47:42;8.43;;;5.35;;
57627;SDS011;43451;49.060;10.616;2023-09-12T01:50:10;11.70;;;5.97;;
57627;SDS011;43451;49.060;10.616;2023-09-12T01:52:46;8.50;;;5.90;;
57627;SDS011;43451;49.060;10.616;2023-09-12T02:00:32;7.97;;;6.20;;
57627;SDS011;43451;49.060;10.616;2023-09-12T02:02:58;9.75;;;6.00;;
57627;SDS011;43451;49.060;10.616;2023-09-12T02:05:35;8.77;;;5.93;;
57627;SDS011;43451;49.060;10.616;2023-09-12T02:08:02;9.75;;;6.15;;
57627;SDS011;43451;49.060;10.616;2023-09-12T02:10:29;9.88;;;6.18;;
57627;SDS011;43451;49.060;10.616;2023-09-12T02:12:57;7.63;;;4.82;;
57627;SDS011;43451;49.060;10.616;2023-09-12T02:15:37;8.55;;;5.28;;
57627;SDS011;43451;49.060;10.616;2023-09-12T02:21:00;5.85;;;4.43;;
57627;SDS011;43451;49.060;10.616;2023-09-12T02:23:31;4.05;;;3.25;;
57627;SDS011;43451;49.060;10.616;2023-09-12T02:26:07;5.78;;;4.50;;
57627;SDS011;43451;49.060;10.616;2023-09-12T02:28:40;6.18;;;5.05;;
57627;SDS011;43451;49.060;10.616;2023-09-12T02:31:18;7.10;;;5.47;;
57627;SDS011;43451;49.060;10.616;2023-09-12T02:33:46;10.65;;;6.25;;
57627;SDS011;43451;49.060;10.616;2023-09-12T02:36:22;11.50;;;6.05;;
57627;SDS011;43451;49.060;10.616;2023-09-12T02:38:47;8.60;;;6.18;;
57627;SDS011;43451;49.060;10.616;2023-09-12T02:41:30;9.85;;;6.32;;
57627;SDS011;43451;49.060;10.616;2023-09-12T02:43:56;9.52;;;5.55;;
57627;SDS011;43451;49.060;10.616;2023-09-12T02:49:04;9.30;;;5.60;;
57627;SDS011;43451;49.060;10.616;2023-09-12T02:56:55;6.78;;;5.35;;
57627;SDS011;43451;49.060;10.616;2023-09-12T03:02:43;9.07;;;5.53;;
57627;SDS011;43451;49.060;10.616;2023-09-12T03:05:17;8.40;;;5.63;;
57627;SDS011;43451;49.060;10.616;2023-09-12T03:07:46;10.25;;;6.18;;
57627;SDS011;43451;49.060;10.616;2023-09-12T03:15:39;8.02;;;5.63;;
57627;SDS011;43451;49.060;10.616;2023-09-12T03:18:04;7.03;;;5.20;;
57627;SDS011;43451;49.060;10.616;2023-09-12T03:23:09;8.57;;;5.03;;
57627;SDS011;43451;49.060;10.616;2023-09-12T03:25:39;9.25;;;5.60;;
57627;SDS011;43451;49.060;10.616;2023-09-12T03:28:16;9.32;;;5.65;;
57627;SDS011;43451;49.060;10.616;2023-09-12T03:30:43;7.70;;;5.72;;
57627;SDS011;43451;49.060;10.616;2023-09-12T03:33:09;9.25;;;5.80;;
57627;SDS011;43451;49.060;10.616;2023-09-12T03:35:34;8.93;;;5.72;;
57627;SDS011;43451;49.060;10.616;2023-09-12T03:38:00;9.27;;;5.45;;
57627;SDS011;43451;49.060;10.616;2023-09-12T03:40:29;7.65;;;5.63;;
57627;SDS011;43451;49.060;10.616;2023-09-12T03:43:09;9.68;;;5.30;;
57627;SDS011;43451;49.060;10.616;2023-09-12T03:45:40;12.55;;;6.18;;
57627;SDS011;43451;49.060;10.616;2023-09-12T03:48:07;9.40;;;5.18;;
57627;SDS011;43451;49.060;10.616;2023-09-12T03:50:33;7.55;;;5.22;;
57627;SDS011;43451;49.060;10.616;2023-09-12T03:53:08;7.85;;;5.13;;
57627;SDS011;43451;49.060;10.616;2023-09-12T03:55:43;7.78;;;5.60;;
57627;SDS011;43451;49.060;10.616;2023-09-12T04:01:30;7.28;;;5.07;;
57627;SDS011;43451;49.060;10.616;2023-09-12T04:07:17;11.30;;;5.72;;
57627;SDS011;43451;49.060;10.616;2023-09-12T04:09:46;7.82;;;5.10;;
57627;SDS011;43451;49.060;10.616;2023-09-12T04:12:11;6.82;;;5.10;;
57627;SDS011;43451;49.060;10.616;2023-09-12T04:14:37;7.63;;;5.40;;
57627;SDS011;43451;49.060;10.616;2023-09-12T04:23:10;11.10;;;5.70;;
57627;SDS011;43451;49.060;10.616;2023-09-12T04:25:41;12.82;;;6.22;;
57627;SDS011;43451;49.060;10.616;2023-09-12T04:33:52;8.65;;;5.25;;
57627;SDS011;43451;49.060;10.616;2023-09-12T04:36:18;10.27;;;5.93;;
57627;SDS011;43451;49.060;10.616;2023-09-12T04:38:46;11.00;;;5.93;;
57627;SDS011;43451;49.060;10.616;2023-09-12T04:41:12;10.85;;;6.15;;
57627;SDS011;43451;49.060;10.616;2023-09-12T04:43:41;8.77;;;5.90;;
57627;SDS011;43451;49.060;10.616;2023-09-12T04:46:16;8.77;;;5.60;;
57627;SDS011;43451;49.060;10.616;2023-09-12T04:48:41;6.80;;;5.32;;
57627;SDS011;43451;49.060;10.616;2023-09-12T04:51:08;8.18;;;5.65;;
57627;SDS011;43451;49.060;10.616;2023-09-12T04:53:33;11.27;;;6.28;;
57627;SDS011;43451;49.060;10.616;2023-09-12T04:56:03;11.18;;;6.35;;
57627;SDS011;43451;49.060;10.616;2023-09-12T04:58:32;7.47;;;5.05;;
57627;SDS011;43451;49.060;10.616;2023-09-12T05:00:58;9.23;;;5.82;;
57627;SDS011;43451;49.060;10.616;2023-09-12T05:06:22;10.60;;;6.00;;
57627;SDS011;43451;49.060;10.616;2023-09-12T05:08:48;10.88;;;5.50;;
57627;SDS011;43451;49.060;10.616;2023-09-12T05:11:16;11.57;;;5.40;;
57627;SDS011;43451;49.060;10.616;2023-09-12T05:13:42;12.68;;;6.07;;
57627;SDS011;43451;49.060;10.616;2023-09-12T05:16:07;12.93;;;6.10;;
57627;SDS011;43451;49.060;10.616;2023-09-12T05:18:33;13.13;;;6.22;;
57627;SDS011;43451;49.060;10.616;2023-09-12T05:20:58;11.52;;;6.63;;
57627;SDS011;43451;49.060;10.616;2023-09-12T05:23:24;9.85;;;6.43;;
57627;SDS011;43451;49.060;10.616;2023-09-12T05:25:52;12.32;;;6.85;;
57627;SDS011;43451;49.060;10.616;2023-09-12T05:28:18;13.05;;;6.72;;
57627;SDS011;43451;49.060;10.616;2023-09-12T05:30:43;9.40;;;6.53;;
57627;SDS011;43451;49.060;10.616;2023-09-12T05:33:08;10.27;;;6.38;;
57627;SDS011;43451;49.060;10.616;2023-09-12T05:35:34;10.32;;;6.90;;
57627;SDS011;43451;49.060;10.616;2023-09-12T05:37:59;9.55;;;5.85;;
57627;SDS011;43451;49.060;10.616;2023-09-12T05:40:24;11.32;;;6.68;;
57627;SDS011;43451;49.060;10.616;2023-09-12T05:42:50;11.35;;;7.00;;
57627;SDS011;43451;49.060;10.616;2023-09-12T05:45:15;14.13;;;7.80;;
57627;SDS011;43451;49.060;10.616;2023-09-12T05:47:41;11.75;;;8.02;;
57627;SDS011;43451;49.060;10.616;2023-09-12T05:50:06;15.40;;;8.10;;
57627;SDS011;43451;49.060;10.616;2023-09-12T05:52:42;14.18;;;8.27;;
57627;SDS011;43451;49.060;10.616;2023-09-12T05:55:14;15.15;;;9.38;;
57627;SDS011;43451;49.060;10.616;2023-09-12T06:06:24;13.88;;;9.43;;
57627;SDS011;43451;49.060;10.616;2023-09-12T06:11:23;16.85;;;10.63;;
57627;SDS011;43451;49.060;10.616;2023-09-12T06:13:49;20.80;;;11.23;;
57627;SDS011;43451;49.060;10.616;2023-09-12T06:24:45;20.90;;;13.18;;
57627;SDS011;43451;49.060;10.616;2023-09-12T06:27:11;21.13;;;13.45;;
57627;SDS011;43451;49.060;10.616;2023-09-12T06:29:41;20.08;;;13.25;;
57627;SDS011;43451;49.060;10.616;2023-09-12T06:32:07;23.33;;;13.40;;
57627;SDS011;43451;49.060;10.616;2023-09-12T06:34:32;21.75;;;13.77;;
57627;SDS011;43451;49.060;10.616;2023-09-12T06:37:08;21.85;;;13.45;;
57627;SDS011;43451;49.060;10.616;2023-09-12T06:39:48;21.65;;;13.75;;
57627;SDS011;43451;49.060;10.616;2023-09-12T06:42:22;21.92;;;13.88;;
57627;SDS011;43451;49.060;10.616;2023-09-12T06:44:47;20.73;;;12.43;;
57627;SDS011;43451;49.060;10.616;2023-09-12T06:50:01;18.50;;;12.90;;
57627;SDS011;43451;49.060;10.616;2023-09-12T06:52:27;20.33;;;12.30;;
57627;SDS011;43451;49.060;10.616;2023-09-12T06:54:53;20.23;;;13.02;;
57627;SDS011;43451;49.060;10.616;2023-09-12T06:57:18;19.63;;;13.38;;
57627;SDS011;43451;49.060;10.616;2023-09-12T06:59:43;18.90;;;14.30;;
57627;SDS011;43451;49.060;10.616;2023-09-12T07:02:09;19.48;;;14.07;;
57627;SDS011;43451;49.060;10.616;2023-09-12T07:04:36;19.75;;;14.02;;
57627;SDS011;43451;49.060;10.616;2023-09-12T07:09:47;18.17;;;11.55;;
57627;SDS011;43451;49.060;10.616;2023-09-12T07:21:09;16.15;;;11.43;;
57627;SDS011;43451;49.060;10.616;2023-09-12T07:23:37;18.58;;;11.93;;
57627;SDS011;43451;49.060;10.616;2023-09-12T07:26:03;16.35;;;12.00;;
57627;SDS011;43451;49.060;10.616;2023-09-12T07:28:46;20.35;;;11.45;;
57627;SDS011;43451;49.060;10.616;2023-09-12T07:31:20;20.23;;;11.77;;
57627;SDS011;43451;49.060;10.616;2023-09-12T07:33:46;20.70;;;12.35;;
57627;SDS011;43451;49.060;10.616;2023-09-12T07:39:06;20.00;;;10.48;;
57627;SDS011;43451;49.060;10.616;2023-09-12T07:41:32;13.57;;;9.88;;
57627;SDS011;43451;49.060;10.616;2023-09-12T07:43:57;16.95;;;10.55;;
57627;SDS011;43451;49.060;10.616;2023-09-12T07:46:22;14.93;;;10.07;;
57627;SDS011;43451;49.060;10.616;2023-09-12T07:52:05;16.30;;;10.32;;
57627;SDS011;43451;49.060;10.616;2023-09-12T07:59:24;13.10;;;9.50;;
57627;SDS011;43451;49.060;10.616;2023-09-12T08:01:50;16.35;;;10.23;;
57627;SDS011;43451;49.060;10.616;2023-09-12T08:04:16;19.33;;;10.48;;
57627;SDS011;43451;49.060;10.616;2023-09-12T08:06:42;19.17;;;10.50;;
57627;SDS011;43451;49.060;10.616;2023-09-12T08:09:07;15.57;;;10.30;;
57627;SDS011;43451;49.060;10.616;2023-09-12T08:11:33;16.17;;;9.82;;
57627;SDS011;43451;49.060;10.616;2023-09-12T08:13:59;17.98;;;10.15;;
57627;SDS011;43451;49.060;10.616;2023-09-12T08:16:24;17.95;;;9.65;;
57627;SDS011;43451;49.060;10.616;2023-09-12T08:18:50;19.92;;;10.35;;
57627;SDS011;43451;49.060;10.616;2023-09-12T08:21:15;15.43;;;9.75;;
57627;SDS011;43451;49.060;10.616;2023-09-12T08:23:41;12.60;;;9.88;;
57627;SDS011;43451;49.060;10.616;2023-09-12T08:26:06;17.02;;;10.25;;
57627;SDS011;43451;49.060;10.616;2023-09-12T08:28:32;14.63;;;9.93;;
57627;SDS011;43451;49.060;10.616;2023-09-12T08:30:58;16.98;;;10.20;;
57627;SDS011;43451;49.060;10.616;2023-09-12T08:33:23;15.60;;;10.85;;
57627;SDS011;43451;49.060;10.616;2023-09-12T08:35:49;16.60;;;10.80;;
57627;SDS011;43451;49.060;10.616;2023-09-12T08:38:15;16.15;;;10.90;;
57627;SDS011;43451;49.060;10.616;2023-09-12T08:40:47;14.88;;;10.05;;
57627;SDS011;43451;49.060;10.616;2023-09-12T08:43:14;19.55;;;10.20;;
57627;SDS011;43451;49.060;10.616;2023-09-12T08:45:40;19.48;;;10.18;;
57627;SDS011;43451;49.060;10.616;2023-09-12T08:48:08;16.67;;;9.70;;
57627;SDS011;43451;49.060;10.616;2023-09-12T08:50:35;17.00;;;10.38;;
57627;SDS011;43451;49.060;10.616;2023-09-12T08:53:01;14.88;;;9.23;;
57627;SDS011;43451;49.060;10.616;2023-09-12T08:55:28;16.20;;;9.20;;
57627;SDS011;43451;49.060;10.616;2023-09-12T08:57:54;14.52;;;9.10;;
57627;SDS011;43451;49.060;10.616;2023-09-12T09:00:20;17.05;;;9.60;;
57627;SDS011;43451;49.060;10.616;2023-09-12T09:02:48;12.50;;;8.65;;
57627;SDS011;43451;49.060;10.616;2023-09-12T09:05:14;17.05;;;9.15;;
57627;SDS011;43451;49.060;10.616;2023-09-12T09:07:41;11.88;;;8.68;;
57627;SDS011;43451;49.060;10.616;2023-09-12T09:10:10;12.67;;;8.77;;
57627;SDS011;43451;49.060;10.616;2023-09-12T09:12:45;13.70;;;8.52;;
57627;SDS011;43451;49.060;10.616;2023-09-12T09:15:24;12.48;;;8.95;;
57627;SDS011;43451;49.060;10.616;2023-09-12T09:17:55;13.80;;;8.90;;
57627;SDS011;43451;49.060;10.616;2023-09-12T09:20:24;12.88;;;9.00;;
57627;SDS011;43451;49.060;10.616;2023-09-12T09:23:01;12.35;;;9.15;;
57627;SDS011;43451;49.060;10.616;2023-09-12T09:25:32;16.77;;;8.85;;
57627;SDS011;43451;49.060;10.616;2023-09-12T09:27:58;13.73;;;8.88;;
57627;SDS011;43451;49.060;10.616;2023-09-12T09:30:40;16.77;;;8.48;;
57627;SDS011;43451;49.060;10.616;2023-09-12T09:33:10;13.32;;;8.85;;
57627;SDS011;43451;49.060;10.616;2023-09-12T09:35:37;12.17;;;8.63;;
57627;SDS011;43451;49.060;10.616;2023-09-12T09:38:04;12.50;;;8.18;;
57627;SDS011;43451;49.060;10.616;2023-09-12T09:40:31;15.02;;;9.15;;
57627;SDS011;43451;49.060;10.616;2023-09-12T09:43:01;15.77;;;8.80;;
57627;SDS011;43451;49.060;10.616;2023-09-12T09:45:29;11.88;;;8.80;;
57627;SDS011;43451;49.060;10.616;2023-09-12T09:48:04;18.58;;;8.68;;
57627;SDS011;43451;49.060;10.616;2023-09-12T09:50:36;13.40;;;8.13;;
57627;SDS011;43451;49.060;10.616;2023-09-12T09:53:02;16.65;;;8.70;;
57627;SDS011;43451;49.060;10.616;2023-09-12T09:55:29;12.77;;;8.63;;
57627;SDS011;43451;49.060;10.616;2023-09-12T09:57:55;13.73;;;8.52;;
57627;SDS011;43451;49.060;10.616;2023-09-12T10:00:22;14.80;;;9.07;;
57627;SDS011;43451;49.060;10.616;2023-09-12T10:05:15;10.57;;;7.97;;
57627;SDS011;43451;49.060;10.616;2023-09-12T10:07:42;13.45;;;8.32;;
57627;SDS011;43451;49.060;10.616;2023-09-12T10:10:13;14.63;;;8.77;;
57627;SDS011;43451;49.060;10.616;2023-09-12T10:12:45;14.53;;;8.57;;
57627;SDS011;43451;49.060;10.616;2023-09-12T10:15:15;11.65;;;8.70;;
57627;SDS011;43451;49.060;10.616;2023-09-12T10:17:44;12.60;;;8.27;;
57627;SDS011;43451;49.060;10.616;2023-09-12T10:20:16;14.82;;;8.80;;
57627;SDS011;43451;49.060;10.616;2023-09-12T10:22:50;11.95;;;8.25;;
57627;SDS011;43451;49.060;10.616;2023-09-12T10:25:28;10.98;;;8.07;;
57627;SDS011;43451;49.060;10.616;2023-09-12T10:27:55;14.38;;;8.00;;
57627;SDS011;43451;49.060;10.616;2023-09-12T10:30:21;11.73;;;8.07;;
57627;SDS011;43451;49.060;10.616;2023-09-12T10:32:48;12.50;;;8.25;;
57627;SDS011;43451;49.060;10.616;2023-09-12T10:35:15;10.80;;;7.70;;
57627;SDS011;43451;49.060;10.616;2023-09-12T10:37:41;12.63;;;8.00;;
57627;SDS011;43451;49.060;10.616;2023-09-12T10:40:10;12.07;;;7.80;;
57627;SDS011;43451;49.060;10.616;2023-09-12T10:42:38;12.20;;;7.97;;
57627;SDS011;43451;49.060;10.616;2023-09-12T10:45:05;10.55;;;8.38;;
57627;SDS011;43451;49.060;10.616;2023-09-12T10:47:34;10.75;;;8.48;;
57627;SDS011;43451;49.060;10.616;2023-09-12T10:50:04;12.60;;;8.25;;
57627;SDS011;43451;49.060;10.616;2023-09-12T10:52:30;13.07;;;8.27;;
57627;SDS011;43451;49.060;10.616;2023-09-12T10:54:55;11.60;;;8.27;;
57627;SDS011;43451;49.060;10.616;2023-09-12T10:57:21;10.90;;;7.53;;
57627;SDS011;43451;49.060;10.616;2023-09-12T11:04:58;11.27;;;8.13;;
57627;SDS011;43451;49.060;10.616;2023-09-12T11:12:44;11.73;;;8.02;;
57627;SDS011;43451;49.060;10.616;2023-09-12T11:15:10;9.93;;;7.47;;
57627;SDS011;43451;49.060;10.616;2023-09-12T11:17:37;10.57;;;7.57;;
57627;SDS011;43451;49.060;10.616;2023-09-12T11:20:03;10.82;;;7.85;;
57627;SDS011;43451;49.060;10.616;2023-09-12T11:22:41;9.90;;;7.60;;
57627;SDS011;43451;49.060;10.616;2023-09-12T11:25:21;10.57;;;7.68;;
57627;SDS011;43451;49.060;10.616;2023-09-12T11:30:26;10.13;;;7.43;;
57627;SDS011;43451;49.060;10.616;2023-09-12T11:32:55;9.27;;;6.93;;
57627;SDS011;43451;49.060;10.616;2023-09-12T11:35:22;10.45;;;7.60;;
57627;SDS011;43451;49.060;10.616;2023-09-12T11:37:53;9.52;;;7.32;;
57627;SDS011;43451;49.060;10.616;2023-09-12T11:40:41;11.18;;;7.80;;
57627;SDS011;43451;49.060;10.616;2023-09-12T11:43:17;11.95;;;7.28;;
57627;SDS011;43451;49.060;10.616;2023-09-12T11:45:47;12.70;;;6.88;;
57627;SDS011;43451;49.060;10.616;2023-09-12T11:48:14;12.30;;;7.60;;
57627;SDS011;43451;49.060;10.616;2023-09-12T11:50:39;10.80;;;7.28;;
57627;SDS011;43451;49.060;10.616;2023-09-12T11:55:46;7.75;;;6.82;;
57627;SDS011;43451;49.060;10.616;2023-09-12T11:58:13;13.63;;;7.50;;
57627;SDS011;43451;49.060;10.616;2023-09-12T12:00:54;14.70;;;7.40;;
57627;SDS011;43451;49.060;10.616;2023-09-12T12:03:21;11.02;;;7.40;;
57627;SDS011;43451;49.060;10.616;2023-09-12T12:05:48;11.20;;;7.20;;
57627;SDS011;43451;49.060;10.616;2023-09-12T12:08:15;8.23;;;7.43;;
57627;SDS011;43451;49.060;10.616;2023-09-12T12:13:11;27.57;;;11.27;;
57627;SDS011;43451;49.060;10.616;2023-09-12T12:15:42;19.85;;;9.35;;
57627;SDS011;43451;49.060;10.616;2023-09-12T12:18:08;13.13;;;7.80;;
57627;SDS011;43451;49.060;10.616;2023-09-12T12:20:34;15.30;;;8.10;;
57627;SDS011;43451;49.060;10.616;2023-09-12T12:22:59;13.25;;;7.43;;
57627;SDS011;43451;49.060;10.616;2023-09-12T12:25:25;9.55;;;6.75;;
57627;SDS011;43451;49.060;10.616;2023-09-12T12:27:51;11.02;;;6.93;;
57627;SDS011;43451;49.060;10.616;2023-09-12T12:30:17;7.75;;;6.15;;
57627;SDS011;43451;49.060;10.616;2023-09-12T12:32:43;9.38;;;6.93;;
57627;SDS011;43451;49.060;10.616;2023-09-12T12:35:17;8.48;;;6.38;;
57627;SDS011;43451;49.060;10.616;2023-09-12T12:40:12;16.83;;;8.73;;
57627;SDS011;43451;49.060;10.616;2023-09-12T12:42:39;8.75;;;6.63;;
57627;SDS011;43451;49.060;10.616;2023-09-12T12:45:20;7.63;;;6.50;;
57627;SDS011;43451;49.060;10.616;2023-09-12T12:47:50;10.85;;;6.53;;
57627;SDS011;43451;49.060;10.616;2023-09-12T12:50:17;8.48;;;6.20;;
57627;SDS011;43451;49.060;10.616;2023-09-12T12:52:46;7.35;;;6.35;;
57627;SDS011;43451;49.060;10.616;2023-09-12T12:55:13;10.95;;;6.25;;
57627;SDS011;43451;49.060;10.616;2023-09-12T12:57:39;9.93;;;6.20;;
57627;SDS011;43451;49.060;10.616;2023-09-12T13:00:08;12.82;;;6.30;;
57627;SDS011;43451;49.060;10.616;2023-09-12T13:02:41;9.32;;;6.07;;
57627;SDS011;43451;49.060;10.616;2023-09-12T13:05:24;10.75;;;5.95;;
57627;SDS011;43451;49.060;10.616;2023-09-12T13:07:53;9.38;;;6.55;;
57627;SDS011;43451;49.060;10.616;2023-09-12T13:10:19;6.80;;;6.10;;
57627;SDS011;43451;49.060;10.616;2023-09-12T13:12:46;9.63;;;6.05;;
57627;SDS011;43451;49.060;10.616;2023-09-12T13:15:12;7.72;;;5.72;;
57627;SDS011;43451;49.060;10.616;2023-09-12T13:17:38;8.23;;;6.07;;
57627;SDS011;43451;49.060;10.616;2023-09-12T13:20:05;7.88;;;6.45;;
57627;SDS011;43451;49.060;10.616;2023-09-12T13:22:33;8.18;;;6.00;;
57627;SDS011;43451;49.060;10.616;2023-09-12T13:24:59;6.20;;;5.60;;
57627;SDS011;43451;49.060;10.616;2023-09-12T13:27:24;8.57;;;5.80;;
57627;SDS011;43451;49.060;10.616;2023-09-12T13:29:50;9.30;;;6.10;;
57627;SDS011;43451;49.060;10.616;2023-09-12T13:32:15;8.05;;;5.80;;
57627;SDS011;43451;49.060;10.616;2023-09-12T13:34:43;6.63;;;5.30;;
57627;SDS011;43451;49.060;10.616;2023-09-12T13:37:09;7.50;;;5.97;;
57627;SDS011;43451;49.060;10.616;2023-09-12T13:39:35;7.45;;;5.47;;
57627;SDS011;43451;49.060;10.616;2023-09-12T13:42:00;8.13;;;5.60;;
57627;SDS011;43451;49.060;10.616;2023-09-12T13:44:28;9.88;;;5.65;;
57627;SDS011;43451;49.060;10.616;2023-09-12T13:46:54;7.05;;;5.43;;
57627;SDS011;43451;49.060;10.616;2023-09-12T13:49:19;6.32;;;5.47;;
57627;SDS011;43451;49.060;10.616;2023-09-12T13:51:45;6.28;;;5.25;;
57627;SDS011;43451;49.060;10.616;2023-09-12T13:54:10;8.02;;;5.65;;
57627;SDS011;43451;49.060;10.616;2023-09-12T13:56:40;7.10;;;5.60;;
57627;SDS011;43451;49.060;10.616;2023-09-12T13:59:06;9.65;;;5.80;;
57627;SDS011;43451;49.060;10.616;2023-09-12T14:01:32;9.98;;;5.93;;
57627;SDS011;43451;49.060;10.616;2023-09-12T14:03:57;6.68;;;5.57;;
57627;SDS011;43451;49.060;10.616;2023-09-12T14:06:23;8.25;;;5.80;;
57627;SDS011;43451;49.060;10.616;2023-09-12T14:08:48;10.40;;;5.60;;
57627;SDS011;43451;49.060;10.616;2023-09-12T14:11:14;13.30;;;5.43;;
57627;SDS011;43451;49.060;10.616;2023-09-12T14:13:39;9.02;;;5.60;;
57627;SDS011;43451;49.060;10.616;2023-09-12T14:16:05;8.05;;;5.45;;
57627;SDS011;43451;49.060;10.616;2023-09-12T14:18:30;8.73;;;5.20;;
57627;SDS011;43451;49.060;10.616;2023-09-12T14:20:56;6.55;;;5.20;;
57627;SDS011;43451;49.060;10.616;2023-09-12T14:23:22;7.70;;;5.60;;
57627;SDS011;43451;49.060;10.616;2023-09-12T14:25:47;9.07;;;5.10;;
57627;SDS011;43451;49.060;10.616;2023-09-12T14:28:13;7.10;;;5.25;;
57627;SDS011;43451;49.060;10.616;2023-09-12T14:30:38;12.38;;;5.88;;
57627;SDS011;43451;49.060;10.616;2023-09-12T14:33:09;8.82;;;5.47;;
57627;SDS011;43451;49.060;10.616;2023-09-12T14:35:34;9.70;;;5.43;;
57627;SDS011;43451;49.060;10.616;2023-09-12T14:38:01;8.77;;;5.75;;
57627;SDS011;43451;49.060;10.616;2023-09-12T14:40:27;9.05;;;5.63;;
57627;SDS011;43451;49.060;10.616;2023-09-12T14:42:53;8.45;;;5.50;;
57627;SDS011;43451;49.060;10.616;2023-09-12T14:45:19;8.65;;;5.03;;
57627;SDS011;43451;49.060;10.616;2023-09-12T14:47:44;8.50;;;5.50;;
57627;SDS011;43451;49.060;10.616;2023-09-12T14:50:10;8.02;;;5.28;;
57627;SDS011;43451;49.060;10.616;2023-09-12T14:52:35;9.13;;;5.20;;
57627;SDS011;43451;49.060;10.616;2023-09-12T14:55:03;11.32;;;5.60;;
57627;SDS011;43451;49.060;10.616;2023-09-12T14:57:29;12.43;;;5.50;;
57627;SDS011;43451;49.060;10.616;2023-09-12T14:59:55;8.57;;;5.10;;
57627;SDS011;43451;49.060;10.616;2023-09-12T15:02:22;8.82;;;5.25;;
57627;SDS011;43451;49.060;10.616;2023-09-12T15:04:49;10.57;;;5.28;;
57627;SDS011;43451;49.060;10.616;2023-09-12T15:07:14;11.18;;;5.32;;
57627;SDS011;43451;49.060;10.616;2023-09-12T15:09:40;9.18;;;5.35;;
57627;SDS011;43451;49.060;10.616;2023-09-12T15:12:05;9.65;;;5.45;;
57627;SDS011;43451;49.060;10.616;2023-09-12T15:14:31;9.10;;;5.63;;
57627;SDS011;43451;49.060;10.616;2023-09-12T15:16:57;7.30;;;5.10;;
57627;SDS011;43451;49.060;10.616;2023-09-12T15:19:25;10.00;;;5.45;;
57627;SDS011;43451;49.060;10.616;2023-09-12T15:21:50;7.40;;;5.32;;
57627;SDS011;43451;49.060;10.616;2023-09-12T15:24:16;8.65;;;5.18;;
57627;SDS011;43451;49.060;10.616;2023-09-12T15:26:41;9.90;;;5.47;;
57627;SDS011;43451;49.060;10.616;2023-09-12T15:29:07;13.93;;;5.10;;
57627;SDS011;43451;49.060;10.616;2023-09-12T15:31:33;10.20;;;5.15;;
57627;SDS011;43451;49.060;10.616;2023-09-12T15:33:59;6.60;;;4.70;;
57627;SDS011;43451;49.060;10.616;2023-09-12T15:36:25;13.07;;;5.47;;
57627;SDS011;43451;49.060;10.616;2023-09-12T15:38:50;11.57;;;5.00;;
57627;SDS011;43451;49.060;10.616;2023-09-12T15:41:16;9.43;;;4.93;;
57627;SDS011;43451;49.060;10.616;2023-09-12T15:43:41;16.83;;;5.43;;
57627;SDS011;43451;49.060;10.616;2023-09-12T15:46:07;12.10;;;5.15;;
57627;SDS011;43451;49.060;10.616;2023-09-12T15:48:32;7.10;;;5.10;;
57627;SDS011;43451;49.060;10.616;2023-09-12T15:50:58;6.57;;;4.93;;
57627;SDS011;43451;49.060;10.616;2023-09-12T15:53:24;6.35;;;5.10;;
57627;SDS011;43451;49.060;10.616;2023-09-12T15:55:50;12.32;;;5.47;;
57627;SDS011;43451;49.060;10.616;2023-09-12T16:00:42;13.07;;;5.77;;
57627;SDS011;43451;49.060;10.616;2023-09-12T16:03:08;19.52;;;5.85;;
57627;SDS011;43451;49.060;10.616;2023-09-12T16:05:33;10.95;;;5.65;;
57627;SDS011;43451;49.060;10.616;2023-09-12T16:07:58;21.90;;;6.53;;
57627;SDS011;43451;49.060;10.616;2023-09-12T16:10:24;11.63;;;6.18;;
57627;SDS011;43451;49.060;10.616;2023-09-12T16:12:49;10.95;;;6.30;;
57627;SDS011;43451;49.060;10.616;2023-09-12T16:15:15;10.38;;;6.40;;
57627;SDS011;43451;49.060;10.616;2023-09-12T16:17:40;10.60;;;6.32;;
57627;SDS011;43451;49.060;10.616;2023-09-12T16:20:10;19.50;;;6.57;;
57627;SDS011;43451;49.060;10.616;2023-09-12T16:22:38;19.08;;;7.20;;
57627;SDS011;43451;49.060;10.616;2023-09-12T16:25:04;16.23;;;7.03;;
57627;SDS011;43451;49.060;10.616;2023-09-12T16:27:30;10.70;;;6.30;;
57627;SDS011;43451;49.060;10.616;2023-09-12T16:29:55;19.88;;;7.47;;
57627;SDS011;43451;49.060;10.616;2023-09-12T16:32:22;13.23;;;6.50;;
57627;SDS011;43451;49.060;10.616;2023-09-12T16:34:47;17.02;;;6.53;;